Airfield :







YOU CAN JOIN US ON...

 
LOGIN :

Register | Disclaimer

   EN    FR    IT 

 









Legend :    VFR   Marginal VFR   IFR   Intensive IFR   Very Intensive IFR
Visi :
Ceiling :
>= 8 km
>= 3000ft
5 to 8 km
1000 to 3000 ft
1500m to 5 km
500 to 1000 ft
800 to 1500m
200 to 500 ft
< 800m
< 200 ft
Symbols :   Thunderstorms  Fog  Heavy snow  Heavy precipitations  Wind > 20 kt






- Airport Elevation : 108 ft
- IATA code : YGP


CYGP - Gaspé

CURRENT METAR :
  • 011800Z 33005KT 300V360 10SM -RA OVC020 02/01 A2999 RMK SC8 SLP160

EXPIRED METARs :
  • 011740Z 32006KT 10SM -RA OVC015 02/01 A3000 RMK SC8 SLP164
  • 011700Z 33006KT 10SM OVC013 02/00 A3002 RMK SC8 SLP168
  • 011600Z 32005KT 270V360 10SM OVC010 02/00 A3002 RMK SC8 SLP171

TAF TAF CYGP
Valid from the 01 at 14:00 until the 02 at 02:00 UTC


011338Z 0114/0202 VRB03KT 6SM -RASN BR SCT006 OVC012
TEMPO 0114/0118 2SM -SN BKN006
BECMG 0114/0116 04008KT
FM012000 04008KT 11/2SM -RA BR OVC004
PROB30 0120/0124 1/2SM -RA FG VV002
FM020000 08008KT 1SM -RA BR OVC003
PROB40 0200/0202 1/2SM -RA FG VV002 RMK NXT FCST BY 012000Z



MET'MAP, your aeronautical weather chart ! - Copyright ORBIFLY December 2007 - Disclaimer

ORBIFLY MET'MAP TEAM :

Programming & Development : Alexandra Zaïnal
Concept & original design : Baudouin d'Aumeries
Assistance for programming : Marc-Olivier Méhu
Technical & hardware support : Manuel Goepfert

Contact : metmap@orbifly.com




SOURCES & CREDITS :

   NOAA